Time,TemperatureF,DewpointF,PressureIn,WindDirection,WindDirectionDegrees,WindSpeedMPH,WindSpeedGustMPH,Humidity,HourlyPrecipIn,Conditions,Clouds,dailyrainin,SoftwareType,DateUTC
2013-09-23 00:12:00,66.0,29.0,-100.00,NW,315,6.0,13.0,25,0.00,,,-99.99,,2013-09-23 00:12:00,
2013-09-23 00:23:00,66.0,31.0,-100.00,NW,311,11.0,21.0,27,0.00,,,-99.99,,2013-09-23 00:23:00,
2013-09-23 00:42:00,65.0,34.0,-100.00,NW,306,14.0,23.0,31,0.00,,,-99.99,,2013-09-23 00:42:00,
2013-09-23 01:12:00,65.0,35.0,-100.00,NW,311,12.0,21.0,33,0.00,,,-99.99,,2013-09-23 01:12:00,
2013-09-23 01:22:00,65.0,35.0,-100.00,NW,311,12.0,21.0,33,0.00,,,-99.99,,2013-09-23 01:22:00,
2013-09-23 01:43:00,64.0,35.0,-100.00,WNW,295,14.0,21.0,34,0.00,,,-99.99,,2013-09-23 01:43:00,
2013-09-23 01:52:00,62.0,36.0,-100.00,WNW,282,12.0,20.0,38,0.00,,,-99.99,,2013-09-23 01:52:00,
2013-09-23 02:02:00,62.0,36.0,-100.00,WNW,282,12.0,20.0,38,0.00,,,-99.99,,2013-09-23 02:02:00,
2013-09-23 02:22:00,61.0,36.0,-100.00,WNW,289,9.0,15.0,40,0.00,,,-99.99,,2013-09-23 02:22:00,
2013-09-23 02:42:00,60.0,36.0,-100.00,WNW,295,7.0,12.0,41,0.00,,,-99.99,,2013-09-23 02:42:00,
2013-09-23 02:52:00,59.0,37.0,-100.00,WNW,294,6.0,12.0,44,0.00,,,-99.99,,2013-09-23 02:52:00,
2013-09-23 03:02:00,59.0,37.0,-100.00,WNW,294,6.0,12.0,44,0.00,,,-99.99,,2013-09-23 03:02:00,
2013-09-23 03:22:00,60.0,37.0,-100.00,NW,313,6.0,13.0,43,0.00,,,-99.99,,2013-09-23 03:22:00,
2013-09-23 03:44:00,57.0,38.0,-100.00,NNE,32,3.0,9.0,48,0.00,,,-99.99,,2013-09-23 03:44:00,
2013-09-23 03:54:00,56.0,38.0,-100.00,NE,49,5.0,7.0,50,0.00,,,-99.99,,2013-09-23 03:54:00,
2013-09-23 04:14:00,55.0,38.0,-100.00,ESE,103,1.0,5.0,52,0.00,,,-99.99,,2013-09-23 04:14:00,
2013-09-23 04:24:00,55.0,38.0,-100.00,ESE,103,1.0,5.0,52,0.00,,,-99.99,,2013-09-23 04:24:00,
2013-09-23 04:43:00,55.0,37.0,-100.00,East,99,3.0,7.0,50,0.00,,,-99.99,,2013-09-23 04:43:00,
2013-09-23 05:12:00,51.0,39.0,-100.00,SSE,164,3.0,4.0,64,0.00,,,-99.99,,2013-09-23 05:12:00,
2013-09-23 05:22:00,52.0,36.0,-100.00,NNE,24,2.0,3.0,55,0.00,,,-99.99,,2013-09-23 05:22:00,
2013-09-23 05:43:00,49.0,39.0,-100.00,SE,124,2.0,5.0,67,0.00,,,-99.99,,2013-09-23 05:43:00,
2013-09-23 06:13:00,48.0,38.0,-100.00,SE,130,1.0,2.0,69,0.00,,,-99.99,,2013-09-23 06:13:00,
2013-09-23 06:22:00,48.0,35.0,-100.00,East,88,3.0,5.0,60,0.00,,,-99.99,,2013-09-23 06:22:00,
2013-09-23 06:42:00,47.0,35.0,-100.00,ESE,114,3.0,5.0,63,0.00,,,-99.99,,2013-09-23 06:42:00,
2013-09-23 07:11:00,46.0,35.0,-100.00,ESE,119,2.0,3.0,66,0.00,,,-99.99,,2013-09-23 07:11:00,
2013-09-23 07:21:00,46.0,36.0,-100.00,ESE,112,1.0,3.0,67,0.00,,,-99.99,,2013-09-23 07:21:00,
2013-09-23 07:42:00,45.0,34.0,-100.00,ENE,75,3.0,4.0,65,0.00,,,-99.99,,2013-09-23 07:42:00,
2013-09-23 08:11:00,45.0,34.0,-100.00,East,100,2.0,4.0,65,0.00,,,-99.99,,2013-09-23 08:11:00,
2013-09-23 08:42:00,44.0,34.0,-100.00,ESE,119,3.0,5.0,69,0.00,,,-99.99,,2013-09-23 08:42:00,
2013-09-23 08:52:00,44.0,35.0,-100.00,ESE,119,2.0,4.0,70,0.00,,,-99.99,,2013-09-23 08:52:00,
2013-09-23 09:02:00,44.0,35.0,-100.00,ESE,119,2.0,4.0,70,0.00,,,-99.99,,2013-09-23 09:02:00,
2013-09-23 09:21:00,43.0,34.0,-100.00,East,99,3.0,5.0,69,0.00,,,-99.99,,2013-09-23 09:21:00,
2013-09-23 09:42:00,43.0,34.0,-100.00,ESE,102,3.0,5.0,69,0.00,,,-99.99,,2013-09-23 09:42:00,
2013-09-23 09:53:00,43.0,35.0,-100.00,ESE,110,4.0,5.0,72,0.00,,,-99.99,,2013-09-23 09:53:00,
2013-09-23 10:12:00,41.0,35.0,-100.00,ESE,120,1.0,3.0,79,0.00,,,-99.99,,2013-09-23 10:12:00,
2013-09-23 10:42:00,41.0,35.0,-100.00,SE,130,0.0,1.0,78,0.00,,,-99.99,,2013-09-23 10:42:00,
2013-09-23 10:52:00,41.0,33.0,-100.00,ENE,75,0.0,2.0,74,0.00,,,-99.99,,2013-09-23 10:52:00,
2013-09-23 11:02:00,41.0,33.0,-100.00,ENE,75,0.0,2.0,74,0.00,,,-99.99,,2013-09-23 11:02:00,
2013-09-23 11:41:00,39.0,33.0,-100.00,ESE,119,3.0,5.0,79,0.00,,,-99.99,,2013-09-23 11:41:00,
2013-09-23 12:11:00,39.0,32.0,-100.00,East,100,3.0,5.0,76,0.00,,,-99.99,,2013-09-23 12:11:00,
2013-09-23 12:22:00,39.0,34.0,-100.00,SE,140,2.0,3.0,82,0.00,,,-99.99,,2013-09-23 12:22:00,
2013-09-23 12:42:00,39.0,33.0,-100.00,ESE,103,2.0,4.0,79,0.00,,,-99.99,,2013-09-23 12:42:00,
2013-09-23 12:52:00,39.0,33.0,-100.00,ESE,103,2.0,4.0,79,0.00,,,-99.99,,2013-09-23 12:52:00,
2013-09-23 13:11:00,38.0,31.0,-100.00,East,96,2.0,4.0,77,0.00,,,-99.99,,2013-09-23 13:11:00,
2013-09-23 13:21:00,36.0,33.0,-100.00,SE,130,1.0,3.0,88,0.00,,,-99.99,,2013-09-23 13:21:00,
2013-09-23 13:42:00,38.0,35.0,-100.00,ESE,123,2.0,3.0,88,0.00,,,-99.99,,2013-09-23 13:42:00,
2013-09-23 14:11:00,37.0,32.0,-100.00,ESE,119,3.0,5.0,83,0.00,,,-99.99,,2013-09-23 14:11:00,
2013-09-23 14:21:00,37.0,33.0,-100.00,ESE,116,2.0,3.0,86,0.00,,,-99.99,,2013-09-23 14:21:00,
2013-09-23 14:42:00,37.0,33.0,-100.00,ESE,116,4.0,6.0,85,0.00,,,-99.99,,2013-09-23 14:42:00,
2013-09-23 15:11:00,39.0,35.0,-100.00,South,191,0.0,2.0,86,0.00,,,-99.99,,2013-09-23 15:11:00,
2013-09-23 15:21:00,39.0,35.0,-100.00,South,191,0.0,2.0,86,0.00,,,-99.99,,2013-09-23 15:21:00,
2013-09-23 15:43:00,43.0,35.0,-100.00,SSE,155,0.0,2.0,74,0.00,,,-99.99,,2013-09-23 15:43:00,
2013-09-23 15:54:00,46.0,36.0,-100.00,SE,126,2.0,4.0,68,0.00,,,-99.99,,2013-09-23 15:54:00,
2013-09-23 16:12:00,49.0,37.0,-100.00,SE,126,2.0,4.0,62,0.00,,,-99.99,,2013-09-23 16:12:00,
2013-09-23 16:23:00,49.0,37.0,-100.00,SE,126,2.0,4.0,62,0.00,,,-99.99,,2013-09-23 16:23:00,
2013-09-23 16:43:00,51.0,36.0,-100.00,South,171,1.0,3.0,57,0.00,,,-99.99,,2013-09-23 16:43:00,
2013-09-23 16:53:00,52.0,37.0,-100.00,WSW,244,3.0,6.0,56,0.00,,,-99.99,,2013-09-23 16:53:00,
2013-09-23 17:03:00,52.0,37.0,-100.00,WSW,244,3.0,6.0,56,0.00,,,-99.99,,2013-09-23 17:03:00,
2013-09-23 17:42:00,56.0,37.0,-100.00,West,268,3.0,7.0,49,0.00,,,-99.99,,2013-09-23 17:42:00,
2013-09-23 17:52:00,58.0,37.0,-100.00,SW,232,2.0,7.0,45,0.00,,,-99.99,,2013-09-23 17:52:00,
2013-09-23 18:02:00,58.0,37.0,-100.00,SW,232,2.0,7.0,45,0.00,,,-99.99,,2013-09-23 18:02:00,
2013-09-23 18:21:00,60.0,37.0,-100.00,WSW,246,2.0,6.0,42,0.00,,,-99.99,,2013-09-23 18:21:00,
2013-09-23 18:42:00,61.0,36.0,-100.00,WSW,239,2.0,6.0,39,0.00,,,-99.99,,2013-09-23 18:42:00,
2013-09-23 19:12:00,64.0,36.0,-100.00,East,80,2.0,7.0,35,0.00,,,-99.99,,2013-09-23 19:12:00,
2013-09-23 19:22:00,65.0,35.0,-100.00,NW,312,2.0,5.0,33,0.00,,,-99.99,,2013-09-23 19:22:00,
2013-09-23 19:42:00,68.0,34.0,-100.00,South,181,2.0,6.0,28,0.00,,,-99.99,,2013-09-23 19:42:00,
2013-09-23 20:12:00,68.0,34.0,-100.00,SE,143,2.0,5.0,28,0.00,,,-99.99,,2013-09-23 20:12:00,
2013-09-23 20:21:00,69.0,33.0,-100.00,NW,320,2.0,5.0,26,0.00,,,-99.99,,2013-09-23 20:21:00,
2013-09-23 20:42:00,71.0,31.0,-100.00,WSW,251,4.0,7.0,23,0.00,,,-99.99,,2013-09-23 20:42:00,
2013-09-23 21:11:00,72.0,29.0,-100.00,WNW,285,3.0,7.0,20,0.00,,,-99.99,,2013-09-23 21:11:00,
2013-09-23 21:23:00,74.0,25.0,-100.00,WNW,288,3.0,7.0,16,0.00,,,-99.99,,2013-09-23 21:23:00,
2013-09-23 21:44:00,76.0,23.0,-100.00,WSW,257,3.0,7.0,14,0.00,,,-99.99,,2013-09-23 21:44:00,
2013-09-23 22:13:00,76.0,22.0,-100.00,NNE,17,2.0,6.0,13,0.00,,,-99.99,,2013-09-23 22:13:00,
2013-09-23 22:23:00,76.0,22.0,-100.00,NNE,17,2.0,6.0,13,0.00,,,-99.99,,2013-09-23 22:23:00,
2013-09-23 22:43:00,76.0,25.0,-100.00,North,354,6.0,10.0,15,0.00,,,-99.99,,2013-09-23 22:43:00,
2013-09-23 22:54:00,76.0,25.0,-100.00,NNW,340,3.0,9.0,15,0.00,,,-99.99,,2013-09-23 22:54:00,
2013-09-23 23:12:00,77.0,22.0,-100.00,WNW,296,5.0,10.0,13,0.00,,,-99.99,,2013-09-23 23:12:00,
2013-09-23 23:42:00,78.0,25.0,-100.00,WSW,257,7.0,13.0,14,0.00,,,-99.99,,2013-09-23 23:42:00,
2013-09-23 23:53:00,79.0,20.0,-100.00,WNW,298,5.0,11.0,11,0.00,,,-99.99,,2013-09-23 23:53:00,